createdAt,value
2023-02-16T00:02:10.923Z,99.29
2023-02-16T00:07:27.268Z,99.75
2023-02-16T00:09:56.034Z,99.37
2023-02-16T00:12:29.683Z,96.90
2023-02-16T00:14:57.090Z,99.56
2023-02-16T00:20:30.130Z,96.49
2023-02-16T00:22:57.650Z,95.37
2023-02-16T00:25:26.408Z,93.66
2023-02-16T00:27:53.884Z,92.07
2023-02-16T00:30:22.781Z,90.10
2023-02-16T00:32:50.863Z,89.05
2023-02-16T00:38:06.987Z,88.66
2023-02-16T00:40:36.018Z,87.65
2023-02-16T00:43:03.655Z,88.10
2023-02-16T00:45:32.024Z,88.19
2023-02-16T00:47:59.467Z,87.40
2023-02-16T00:53:15.310Z,86.50
2023-02-16T00:55:44.754Z,87.08
2023-02-16T00:58:17.324Z,86.51
2023-02-16T01:00:47.879Z,86.24
2023-02-16T01:03:18.085Z,85.97
2023-02-16T01:05:45.794Z,85.93
2023-02-16T01:08:33.077Z,86.66
2023-02-16T01:11:09.912Z,86.27
2023-02-16T01:16:42.279Z,87.66
2023-02-16T01:19:11.550Z,87.11
2023-02-16T01:21:40.078Z,87.32
2023-02-16T01:24:07.850Z,87.92
2023-02-16T01:29:38.333Z,87.56
2023-02-16T01:32:05.964Z,87.90
2023-02-16T01:34:36.717Z,87.89
2023-02-16T01:37:04.144Z,87.31
2023-02-16T01:39:31.615Z,88.00
2023-02-16T01:42:14.835Z,88.86
2023-02-16T01:44:48.324Z,88.10
2023-02-16T01:47:27.486Z,87.84
2023-02-16T01:52:45.230Z,88.89
2023-02-16T01:55:18.597Z,89.05
2023-02-16T01:57:48.498Z,88.87
2023-02-16T02:00:27.212Z,88.27
2023-02-16T02:03:16.022Z,87.67
2023-02-16T02:08:43.910Z,89.74
2023-02-16T02:14:12.816Z,88.45
2023-02-16T02:16:41.674Z,88.52
2023-02-16T02:19:09.159Z,89.19
2023-02-16T02:25:05.414Z,89.16
2023-02-16T02:27:34.579Z,89.46
2023-02-16T02:30:20.554Z,87.84
2023-02-16T02:33:14.154Z,89.38
2023-02-16T02:35:49.382Z,89.24
2023-02-16T02:38:22.208Z,89.23
2023-02-16T02:43:43.674Z,90.19
2023-02-16T02:46:14.399Z,89.78
2023-02-16T02:48:41.972Z,90.12
2023-02-16T02:51:31.941Z,89.63
2023-02-16T02:54:21.945Z,89.64
2023-02-16T03:00:25.809Z,91.05
2023-02-16T03:02:57.137Z,91.90
2023-02-16T03:05:26.666Z,91.77
2023-02-16T03:07:57.315Z,94.84
2023-02-16T03:10:45.258Z,94.36
2023-02-16T03:13:15.015Z,94.58
2023-02-16T03:15:45.246Z,94.53
2023-02-16T03:18:31.441Z,93.62
2023-02-16T03:21:17.747Z,94.53
2023-02-16T03:26:41.013Z,94.31
2023-02-16T03:29:19.084Z,96.01
2023-02-16T03:31:47.794Z,96.62
2023-02-16T03:34:17.237Z,95.78
2023-02-16T03:36:47.534Z,94.95
2023-02-16T03:39:15.343Z,93.72
2023-02-16T03:41:44.531Z,93.80
2023-02-16T03:44:11.976Z,92.16
2023-02-16T03:46:39.452Z,92.09
2023-02-16T03:49:06.930Z,91.41
2023-02-16T03:51:35.662Z,90.73
2023-02-16T03:54:03.084Z,92.29
2023-02-16T03:56:30.531Z,90.95
2023-02-16T03:58:57.935Z,91.69
2023-02-16T04:01:25.686Z,90.37
2023-02-16T04:03:53.168Z,88.17
2023-02-16T04:06:20.606Z,92.07
2023-02-16T04:08:50.700Z,89.88
2023-02-16T04:14:16.248Z,94.54
2023-02-16T04:16:43.723Z,94.11
2023-02-16T04:19:11.161Z,93.43
2023-02-16T04:21:38.607Z,92.64
2023-02-16T04:24:07.963Z,91.63
2023-02-16T04:26:35.862Z,91.55
2023-02-16T04:29:03.324Z,92.02
2023-02-16T04:31:30.842Z,92.44
2023-02-16T04:33:58.433Z,91.96
2023-02-16T04:36:25.930Z,92.43
2023-02-16T04:38:53.353Z,91.73
2023-02-16T04:41:22.115Z,91.57
2023-02-16T04:46:37.993Z,91.84
2023-02-16T04:49:05.630Z,91.71
2023-02-16T04:51:33.053Z,91.04
2023-02-16T04:54:00.923Z,92.08
2023-02-16T04:59:32.403Z,91.22
2023-02-16T05:01:59.867Z,92.34
2023-02-16T05:07:23.993Z,92.10
2023-02-16T05:09:51.608Z,91.15
2023-02-16T05:12:45.264Z,92.24
2023-02-16T05:15:14.026Z,91.38
2023-02-16T05:21:01.618Z,91.62
2023-02-16T05:23:29.207Z,91.10
2023-02-16T05:25:56.690Z,90.68
2023-02-16T05:28:24.449Z,90.33
2023-02-16T05:30:54.545Z,90.50
2023-02-16T05:33:21.997Z,90.61
2023-02-16T05:35:49.474Z,91.00
2023-02-16T05:38:16.909Z,90.23
2023-02-16T05:43:50.058Z,88.71
2023-02-16T05:46:19.011Z,87.88
2023-02-16T05:48:46.701Z,87.34
2023-02-16T05:51:14.587Z,86.88
2023-02-16T05:56:40.995Z,86.28
2023-02-16T05:59:08.413Z,86.56
2023-02-16T06:04:29.451Z,86.23
2023-02-16T06:06:56.901Z,85.46
2023-02-16T06:09:24.398Z,85.92
2023-02-16T06:11:51.793Z,84.94
2023-02-16T06:14:21.352Z,85.01
2023-02-16T06:16:51.290Z,85.67
2023-02-16T06:19:42.722Z,85.67
2023-02-16T06:22:11.522Z,85.76
2023-02-16T06:24:39.910Z,84.40
2023-02-16T06:27:07.460Z,84.92
2023-02-16T06:29:34.971Z,84.14
2023-02-16T06:32:02.703Z,84.67
2023-02-16T06:37:22.947Z,84.41
2023-02-16T06:39:50.463Z,84.04
2023-02-16T06:42:18.068Z,83.52
2023-02-16T06:44:45.695Z,83.11
2023-02-16T06:47:13.160Z,82.94
2023-02-16T06:49:40.593Z,83.50
2023-02-16T06:55:12.711Z,83.09
2023-02-16T06:57:40.202Z,82.11
2023-02-16T07:00:09.191Z,80.97
2023-02-16T07:02:37.568Z,80.33
2023-02-16T07:08:08.306Z,78.92
2023-02-16T07:10:48.980Z,77.78
2023-02-16T07:13:17.458Z,77.71
2023-02-16T07:15:45.137Z,78.24
2023-02-16T07:18:15.532Z,77.06
2023-02-16T07:20:43.125Z,76.44
2023-02-16T07:23:10.719Z,74.68
2023-02-16T07:28:38.505Z,73.21
2023-02-16T07:31:10.033Z,73.53
2023-02-16T07:33:37.692Z,74.06
2023-02-16T07:36:06.074Z,74.92
2023-02-16T07:38:33.805Z,70.98
2023-02-16T07:41:01.774Z,69.86
2023-02-16T07:46:33.539Z,67.75
2023-02-16T07:49:01.416Z,67.69
2023-02-16T07:51:30.556Z,66.59
2023-02-16T07:53:58.985Z,65.47
2023-02-16T07:56:27.885Z,66.52
2023-02-16T07:58:55.860Z,69.56
2023-02-16T08:01:24.102Z,69.36
2023-02-16T08:03:53.259Z,70.41
2023-02-16T08:06:21.243Z,70.44
2023-02-16T08:08:49.552Z,71.35
2023-02-16T08:14:17.678Z,72.57
2023-02-16T08:16:45.305Z,71.49
2023-02-16T08:19:14.195Z,69.83
2023-02-16T08:21:41.905Z,71.87
2023-02-16T08:24:13.034Z,71.07
2023-02-16T08:26:43.049Z,71.25
2023-02-16T08:29:12.994Z,70.75
2023-02-16T08:31:41.563Z,72.39
2023-02-16T08:37:14.253Z,72.48
2023-02-16T08:39:42.155Z,72.47
2023-02-16T08:42:13.027Z,70.23
2023-02-16T08:47:44.018Z,71.58
2023-02-16T08:50:12.095Z,70.93
2023-02-16T08:52:40.982Z,71.76
2023-02-16T08:55:08.651Z,70.78
2023-02-16T08:57:36.210Z,69.69
2023-02-16T09:00:21.690Z,70.92
2023-02-16T09:02:49.948Z,69.80
2023-02-16T09:08:17.438Z,69.10
2023-02-16T09:10:45.065Z,70.36
2023-02-16T09:13:14.709Z,70.41
2023-02-16T09:15:42.791Z,68.89
2023-02-16T09:18:10.410Z,71.39
2023-02-16T09:20:39.063Z,68.51
2023-02-16T09:23:06.948Z,69.36
2023-02-16T09:25:37.021Z,69.36
2023-02-16T09:28:09.333Z,69.96
2023-02-16T09:30:39.160Z,67.98
2023-02-16T09:36:10.618Z,66.60
2023-02-16T09:38:39.970Z,69.08
2023-02-16T09:41:11.684Z,66.33
2023-02-16T09:43:46.388Z,65.62
2023-02-16T09:46:17.174Z,66.81
2023-02-16T09:48:48.518Z,67.18
2023-02-16T09:54:23.789Z,61.38
2023-02-16T09:56:56.490Z,60.57
2023-02-16T09:59:35.926Z,62.04
2023-02-16T10:02:39.617Z,63.51
2023-02-16T10:05:18.135Z,62.03
2023-02-16T10:07:54.661Z,64.81
2023-02-16T10:13:20.277Z,63.80
2023-02-16T10:15:49.550Z,64.38
2023-02-16T10:18:23.002Z,65.01
2023-02-16T10:20:53.249Z,64.31
2023-02-16T10:23:31.945Z,64.52
2023-02-16T10:26:03.296Z,64.40
2023-02-16T10:28:39.075Z,63.69
2023-02-16T10:31:13.923Z,63.69
2023-02-16T10:33:43.853Z,62.98
2023-02-16T10:36:17.875Z,61.38
2023-02-16T10:38:52.048Z,64.17
2023-02-16T10:41:27.889Z,64.33
2023-02-16T10:43:59.397Z,62.80
2023-02-16T10:46:37.638Z,63.81
2023-02-16T10:49:05.220Z,64.02
2023-02-16T10:51:35.108Z,64.68
2023-02-16T10:54:05.542Z,63.93
2023-02-16T10:59:40.868Z,67.51
2023-02-16T11:02:19.867Z,64.90
2023-02-16T11:07:53.407Z,64.35
2023-02-16T11:10:23.066Z,65.23
2023-02-16T11:12:57.287Z,65.55
2023-02-16T11:15:27.458Z,65.35
2023-02-16T11:17:58.040Z,64.25
2023-02-16T11:20:30.042Z,63.97
2023-02-16T11:23:16.580Z,65.86
2023-02-16T11:25:58.342Z,65.67
2023-02-16T11:28:32.676Z,65.26
2023-02-16T11:34:06.670Z,65.48
2023-02-16T11:36:37.449Z,63.73
2023-02-16T11:39:08.362Z,64.26
2023-02-16T11:44:41.584Z,64.71
2023-02-16T11:47:11.132Z,63.46
2023-02-16T11:49:41.990Z,65.24
2023-02-16T11:52:29.081Z,65.96
2023-02-16T11:55:20.502Z,66.88
2023-02-16T11:57:48.859Z,67.70
2023-02-16T12:03:31.470Z,69.48
2023-02-16T12:06:11.585Z,71.16
2023-02-16T12:08:52.956Z,70.11
2023-02-16T12:11:28.053Z,71.73
2023-02-16T12:14:05.130Z,71.06
2023-02-16T12:16:38.013Z,71.50
2023-02-16T12:19:11.727Z,69.21
2023-02-16T12:21:45.301Z,69.52
2023-02-16T12:24:22.015Z,70.17
2023-02-16T12:26:51.811Z,68.43
2023-02-16T12:32:21.777Z,67.24
2023-02-16T12:34:56.847Z,68.83
2023-02-16T12:40:20.232Z,67.22
2023-02-16T12:45:52.124Z,69.36
2023-02-16T12:48:37.331Z,68.85
2023-02-16T12:51:10.080Z,67.37
2023-02-16T12:53:44.746Z,68.88
2023-02-16T12:59:19.051Z,64.80
2023-02-16T13:01:47.538Z,64.96
2023-02-16T13:04:20.799Z,64.74
2023-02-16T13:06:52.596Z,65.42
2023-02-16T13:12:07.778Z,63.42
2023-02-16T13:17:42.251Z,64.74
2023-02-16T13:20:16.488Z,65.40
2023-02-16T13:22:52.627Z,63.89
2023-02-16T13:25:37.260Z,64.05
2023-02-16T13:28:16.514Z,65.74
2023-02-16T13:33:57.045Z,65.78
2023-02-16T13:36:41.139Z,66.48
2023-02-16T13:39:25.816Z,67.68
2023-02-16T13:42:08.501Z,69.01
2023-02-16T13:44:39.419Z,70.76
2023-02-16T13:47:07.885Z,72.95
2023-02-16T13:49:42.302Z,72.93
2023-02-16T13:52:10.783Z,75.66
2023-02-16T13:54:40.474Z,74.92
2023-02-16T13:57:11.968Z,75.54
2023-02-16T13:59:59.512Z,76.04
2023-02-16T14:05:36.778Z,74.34
2023-02-16T14:08:16.773Z,74.63
2023-02-16T14:11:05.544Z,75.16
2023-02-16T14:13:35.952Z,72.56
2023-02-16T14:16:08.780Z,72.49
2023-02-16T14:18:42.485Z,73.30
2023-02-16T14:24:06.296Z,72.79
2023-02-16T14:26:52.122Z,71.51
2023-02-16T14:29:39.812Z,73.60
2023-02-16T14:32:21.217Z,72.41
2023-02-16T14:37:37.959Z,73.77
2023-02-16T14:40:17.476Z,73.14
2023-02-16T14:42:52.641Z,76.06
2023-02-16T14:45:58.935Z,75.31
2023-02-16T14:48:48.561Z,74.94
2023-02-16T14:51:30.051Z,77.79
2023-02-16T14:56:49.467Z,79.35
2023-02-16T14:59:27.487Z,78.48
2023-02-16T15:01:55.677Z,78.53
2023-02-16T15:04:30.310Z,78.47
2023-02-16T15:06:59.907Z,78.53
2023-02-16T15:09:28.926Z,78.96
2023-02-16T15:12:17.138Z,78.99
2023-02-16T15:14:49.801Z,78.50
2023-02-16T15:17:26.800Z,78.85
2023-02-16T15:19:55.325Z,79.00
2023-02-16T15:22:25.571Z,78.81
2023-02-16T15:25:01.468Z,79.63
2023-02-16T15:27:32.861Z,79.10
2023-02-16T15:30:06.022Z,79.31
2023-02-16T15:35:38.182Z,79.34
2023-02-16T15:41:27.694Z,80.55
2023-02-16T15:43:57.672Z,81.04
2023-02-16T15:49:29.690Z,81.69
2023-02-16T15:54:55.155Z,81.36
2023-02-16T15:57:26.932Z,82.06
2023-02-16T15:59:58.671Z,82.07
2023-02-16T16:02:34.315Z,82.90
2023-02-16T16:08:04.638Z,83.73
2023-02-16T16:10:33.615Z,83.93
2023-02-16T16:13:38.916Z,85.63
2023-02-16T16:16:09.840Z,84.01
2023-02-16T16:21:47.666Z,84.48
2023-02-16T16:24:32.462Z,83.94
2023-02-16T16:27:01.565Z,84.64
2023-02-16T16:29:35.097Z,83.58
2023-02-16T16:32:05.036Z,84.30
2023-02-16T16:34:35.321Z,83.85
2023-02-16T16:37:03.795Z,83.49
2023-02-16T16:39:32.579Z,83.42
2023-02-16T16:42:20.880Z,84.23
2023-02-16T16:45:00.183Z,85.71
2023-02-16T16:50:39.889Z,85.89
2023-02-16T16:53:46.098Z,85.70
2023-02-16T16:56:14.828Z,84.55
2023-02-16T16:58:42.566Z,85.61
2023-02-16T17:04:23.565Z,86.61
2023-02-16T17:06:51.049Z,86.29
2023-02-16T17:09:18.513Z,86.22
2023-02-16T17:11:45.991Z,87.05
2023-02-16T17:14:17.345Z,87.70
2023-02-16T17:16:49.399Z,87.44
2023-02-16T17:19:21.879Z,87.70
2023-02-16T17:21:50.882Z,87.23
2023-02-16T17:24:18.325Z,86.99
2023-02-16T17:26:45.871Z,87.80
2023-02-16T17:29:13.281Z,87.62
2023-02-16T17:31:40.817Z,87.97
2023-02-16T17:34:08.588Z,87.11
2023-02-16T17:36:36.138Z,87.75
2023-02-16T17:41:53.334Z,88.42
2023-02-16T17:44:20.767Z,88.25
2023-02-16T17:46:48.228Z,88.40
2023-02-16T17:52:18.003Z,87.60
2023-02-16T17:54:45.419Z,87.95
2023-02-16T17:57:14.390Z,87.90
2023-02-16T17:59:42.173Z,87.92
2023-02-16T18:02:10.662Z,87.53
2023-02-16T18:04:40.821Z,88.02
2023-02-16T18:07:08.834Z,88.25
2023-02-16T18:09:36.274Z,88.25
2023-02-16T18:12:03.686Z,87.99
2023-02-16T18:14:32.425Z,88.35
2023-02-16T18:17:01.248Z,89.08
2023-02-16T18:19:30.186Z,88.72
2023-02-16T18:24:48.124Z,88.61
2023-02-16T18:27:15.959Z,88.78
2023-02-16T18:29:44.759Z,88.94
2023-02-16T18:32:12.238Z,88.74
2023-02-16T18:34:39.666Z,88.07
2023-02-16T18:37:07.102Z,88.74
2023-02-16T18:39:34.524Z,88.51
2023-02-16T18:42:01.947Z,88.26
2023-02-16T18:44:29.370Z,87.98
2023-02-16T18:46:58.140Z,88.59
2023-02-16T18:49:25.587Z,88.24
2023-02-16T18:54:44.547Z,88.37
2023-02-16T18:57:12.016Z,88.75
2023-02-16T18:59:39.598Z,88.22
2023-02-16T19:02:08.821Z,87.93
2023-02-16T19:04:36.265Z,88.63
2023-02-16T19:07:03.708Z,88.08
2023-02-16T19:09:31.192Z,87.93
2023-02-16T19:11:58.654Z,88.17
2023-02-16T19:17:04.781Z,87.21
2023-02-16T19:19:33.019Z,87.42
2023-02-16T19:22:00.534Z,87.47
2023-02-16T19:24:28.040Z,86.67
2023-02-16T19:26:55.552Z,87.34
2023-02-16T19:29:22.988Z,87.04
2023-02-16T19:31:50.546Z,88.28
2023-02-16T19:34:19.511Z,88.05
2023-02-16T19:36:46.935Z,88.67
2023-02-16T19:39:14.630Z,89.55
2023-02-16T19:41:43.633Z,90.48
2023-02-16T19:47:09.438Z,93.90
2023-02-16T19:49:38.245Z,94.64
2023-02-16T19:52:06.304Z,97.31
2023-02-16T19:54:34.839Z,98.70
2023-02-16T19:57:02.607Z,99.40
2023-02-16T20:02:32.625Z,100.00
2023-02-16T20:05:01.392Z,100.00
2023-02-16T20:10:09.735Z,100.00
2023-02-16T20:15:39.854Z,100.00
2023-02-16T20:18:08.332Z,100.00
2023-02-16T20:20:36.313Z,100.00
2023-02-16T20:23:03.746Z,100.00
2023-02-16T20:25:32.561Z,100.00
2023-02-16T20:28:00.065Z,100.00
2023-02-16T20:30:27.572Z,100.00
2023-02-16T20:32:55.027Z,100.00
2023-02-16T20:35:22.473Z,100.00
2023-02-16T20:37:49.872Z,100.00
2023-02-16T20:40:20.200Z,100.00
2023-02-16T20:42:48.959Z,100.00
2023-02-16T20:48:18.954Z,100.00
2023-02-16T20:50:46.461Z,100.00
2023-02-16T20:53:14.484Z,100.00
2023-02-16T20:55:41.985Z,100.00
2023-02-16T20:58:10.827Z,100.00
2023-02-16T21:00:38.551Z,100.00
2023-02-16T21:03:06.067Z,100.00
2023-02-16T21:08:21.860Z,100.00
2023-02-16T21:10:49.359Z,100.00
2023-02-16T21:13:18.216Z,100.00
2023-02-16T21:15:45.775Z,100.00
2023-02-16T21:18:13.280Z,100.00
2023-02-16T21:20:40.795Z,100.00
2023-02-16T21:23:08.345Z,100.00
2023-02-16T21:25:36.077Z,100.00
2023-02-16T21:28:03.594Z,100.00
2023-02-16T21:30:32.647Z,100.00
2023-02-16T21:33:00.140Z,100.00
2023-02-16T21:35:30.061Z,100.00
2023-02-16T21:37:58.035Z,100.00
2023-02-16T21:40:43.175Z,100.00
2023-02-16T21:43:10.868Z,100.00
2023-02-16T21:45:39.690Z,100.00
2023-02-16T21:48:24.330Z,100.00
2023-02-16T21:50:51.979Z,100.00
2023-02-16T21:53:19.445Z,100.00
2023-02-16T21:56:04.834Z,100.00
2023-02-16T21:58:34.279Z,100.00
2023-02-16T22:01:03.142Z,100.00
2023-02-16T22:03:30.948Z,100.00
2023-02-16T22:06:02.236Z,100.00
2023-02-16T22:08:30.717Z,100.00
2023-02-16T22:10:58.202Z,100.00
2023-02-16T22:16:30.507Z,100.00
2023-02-16T22:18:58.368Z,100.00
2023-02-16T22:21:26.308Z,100.00
2023-02-16T22:23:54.191Z,100.00
2023-02-16T22:29:23.808Z,100.00
2023-02-16T22:31:52.667Z,100.00
2023-02-16T22:34:22.298Z,100.00
2023-02-16T22:39:48.845Z,100.00
2023-02-16T22:42:16.364Z,100.00
2023-02-16T22:44:43.877Z,100.00
2023-02-16T22:47:12.774Z,100.00
2023-02-16T22:49:40.249Z,100.00
2023-02-16T22:52:08.514Z,100.00
2023-02-16T22:54:36.012Z,100.00
2023-02-16T22:59:59.809Z,100.00
2023-02-16T23:02:28.687Z,100.00
2023-02-16T23:04:58.485Z,100.00
2023-02-16T23:07:26.017Z,100.00
2023-02-16T23:09:53.707Z,100.00
2023-02-16T23:12:21.259Z,100.00
2023-02-16T23:14:49.508Z,100.00
2023-02-16T23:20:21.170Z,100.00
2023-02-16T23:22:48.591Z,100.00
2023-02-16T23:28:11.649Z,100.00
2023-02-16T23:30:42.982Z,100.00
2023-02-16T23:33:14.613Z,100.00
2023-02-16T23:35:43.643Z,100.00
2023-02-16T23:38:14.297Z,100.00
2023-02-16T23:40:42.099Z,100.00
2023-02-16T23:43:10.039Z,100.00
2023-02-16T23:45:38.351Z,100.00
2023-02-16T23:51:14.392Z,100.00
2023-02-16T23:53:42.104Z,100.00
2023-02-16T23:56:14.489Z,100.00
2023-02-16T23:58:44.935Z,100.00
